createdAt,value
2019-03-10T00:02:03.265Z,74.39
2019-03-10T00:04:30.006Z,74.53
2019-03-10T00:06:56.760Z,74.87
2019-03-10T00:09:23.475Z,74.91
2019-03-10T00:11:50.582Z,75.12
2019-03-10T00:14:17.464Z,75.19
2019-03-10T00:16:44.531Z,75.26
2019-03-10T00:19:11.361Z,75.21
2019-03-10T00:21:38.142Z,75.18
2019-03-10T00:24:05.183Z,75.16
2019-03-10T00:26:31.991Z,75.26
2019-03-10T00:28:58.744Z,75.21
2019-03-10T00:31:25.450Z,75.28
2019-03-10T00:33:52.168Z,75.21
2019-03-10T00:36:18.862Z,75.38
2019-03-10T00:39:19.870Z,75.53
2019-03-10T00:42:29.102Z,75.52
2019-03-10T00:46:05.118Z,75.40
2019-03-10T00:49:13.668Z,75.19
2019-03-10T00:52:13.526Z,75.16
2019-03-10T00:54:40.382Z,75.63
2019-03-10T00:57:07.181Z,75.88
2019-03-10T00:59:33.882Z,75.98
2019-03-10T01:02:00.602Z,75.90
2019-03-10T01:04:27.347Z,75.93
2019-03-10T01:06:54.052Z,76.16
2019-03-10T01:09:20.903Z,76.21
2019-03-10T01:11:51.332Z,76.03
2019-03-10T01:14:18.058Z,76.03
2019-03-10T01:16:44.886Z,75.93
2019-03-10T01:19:12.001Z,75.71
2019-03-10T01:21:41.284Z,75.56
2019-03-10T01:24:07.982Z,75.38
2019-03-10T01:26:34.705Z,75.50
2019-03-10T01:29:01.417Z,75.39
2019-03-10T01:32:10.255Z,75.06
2019-03-10T01:34:49.722Z,75.07
2019-03-10T01:37:16.418Z,75.21
2019-03-10T01:39:43.106Z,75.28
2019-03-10T01:42:09.826Z,75.35
2019-03-10T01:44:36.533Z,75.47
2019-03-10T01:47:06.035Z,76.11
2019-03-10T01:49:32.874Z,76.53
2019-03-10T01:51:59.574Z,76.85
2019-03-10T01:54:26.628Z,77.14
2019-03-10T01:56:53.327Z,76.88
2019-03-10T01:59:20.036Z,77.28
2019-03-10T02:01:46.780Z,77.28
2019-03-10T02:04:14.463Z,77.63
2019-03-10T02:06:41.162Z,78.19
2019-03-10T02:09:07.903Z,78.09
2019-03-10T02:11:34.637Z,78.20
2019-03-10T02:14:01.384Z,78.25
2019-03-10T02:16:30.064Z,78.32
2019-03-10T02:18:56.809Z,78.34
2019-03-10T02:21:23.723Z,78.10
2019-03-10T02:23:50.546Z,77.88
2019-03-10T02:26:17.260Z,77.96
2019-03-10T02:28:43.995Z,78.07
2019-03-10T02:31:10.729Z,78.42
2019-03-10T02:33:37.451Z,78.55
2019-03-10T02:36:04.449Z,78.26
2019-03-10T02:38:31.119Z,78.42
2019-03-10T02:40:57.821Z,78.79
2019-03-10T02:43:24.529Z,78.85
2019-03-10T02:45:51.239Z,79.01
2019-03-10T02:48:17.970Z,79.41
2019-03-10T02:50:44.689Z,79.55
2019-03-10T02:53:11.380Z,79.76
2019-03-10T02:55:38.091Z,79.98
2019-03-10T02:58:04.809Z,79.92
2019-03-10T03:00:31.541Z,80.01
2019-03-10T03:02:58.268Z,80.02
2019-03-10T03:05:25.005Z,79.85
2019-03-10T03:07:51.825Z,79.88
2019-03-10T03:10:18.525Z,79.67
2019-03-10T03:12:45.248Z,79.92
2019-03-10T03:15:12.246Z,79.82
2019-03-10T03:17:38.953Z,79.72
2019-03-10T03:20:06.413Z,79.85
2019-03-10T03:22:34.444Z,80.03
2019-03-10T03:25:01.401Z,81.02
2019-03-10T03:27:28.105Z,82.02
2019-03-10T03:29:54.835Z,82.61
2019-03-10T03:32:23.656Z,83.30
2019-03-10T03:34:50.374Z,84.01
2019-03-10T03:37:19.745Z,84.52
2019-03-10T03:39:48.736Z,84.15
2019-03-10T03:42:15.497Z,83.61
2019-03-10T03:44:42.228Z,83.48
2019-03-10T03:47:09.176Z,83.25
2019-03-10T03:49:35.897Z,83.41
2019-03-10T03:52:02.653Z,82.72
2019-03-10T03:54:29.607Z,83.12
2019-03-10T03:56:57.021Z,82.69
2019-03-10T03:59:23.720Z,83.11
2019-03-10T04:01:54.219Z,83.04
2019-03-10T04:04:20.960Z,82.87
2019-03-10T04:06:47.716Z,82.62
2019-03-10T04:09:14.497Z,82.86
2019-03-10T04:11:41.481Z,83.34
2019-03-10T04:14:08.218Z,83.43
2019-03-10T04:16:36.261Z,83.25
2019-03-10T04:19:03.030Z,82.85
2019-03-10T04:21:29.816Z,83.11
2019-03-10T04:24:00.465Z,82.30
2019-03-10T04:26:28.381Z,82.20
2019-03-10T04:28:55.080Z,83.34
2019-03-10T04:31:21.806Z,83.32
2019-03-10T04:33:48.521Z,83.04
2019-03-10T04:36:15.267Z,83.04
2019-03-10T04:38:41.987Z,83.12
2019-03-10T04:41:08.739Z,83.20
2019-03-10T04:43:35.483Z,83.01
2019-03-10T04:46:02.302Z,83.90
2019-03-10T04:48:29.135Z,83.83
2019-03-10T04:50:55.866Z,83.54
2019-03-10T04:53:22.545Z,83.08
2019-03-10T04:56:12.619Z,83.47
2019-03-10T04:58:43.235Z,83.56
2019-03-10T05:01:12.217Z,83.56
2019-03-10T05:03:38.918Z,82.96
2019-03-10T05:06:08.239Z,83.19
2019-03-10T05:08:34.943Z,84.34
2019-03-10T05:11:01.657Z,84.23
2019-03-10T05:13:28.374Z,84.21
2019-03-10T05:15:55.088Z,84.32
2019-03-10T05:18:22.249Z,84.25
2019-03-10T05:20:49.606Z,84.65
2019-03-10T05:23:42.069Z,84.16
2019-03-10T05:26:08.823Z,83.83
2019-03-10T05:28:38.829Z,84.85
2019-03-10T05:31:05.567Z,85.32
2019-03-10T05:33:32.723Z,84.79
2019-03-10T05:35:59.471Z,85.25
2019-03-10T05:38:26.224Z,84.87
2019-03-10T05:40:54.053Z,85.05
2019-03-10T05:43:20.772Z,84.73
2019-03-10T05:45:47.474Z,84.69
2019-03-10T05:48:14.206Z,85.04
2019-03-10T05:50:40.974Z,85.28
2019-03-10T05:53:08.719Z,85.16
2019-03-10T05:55:35.455Z,85.99
2019-03-10T05:58:02.188Z,85.96
2019-03-10T06:00:28.993Z,86.64
2019-03-10T06:02:55.817Z,86.53
2019-03-10T06:05:22.893Z,86.55
2019-03-10T06:07:49.638Z,86.98
2019-03-10T06:10:16.407Z,87.28
2019-03-10T06:12:43.102Z,87.38
2019-03-10T06:15:09.836Z,87.57
2019-03-10T06:17:36.546Z,87.46
2019-03-10T06:20:03.886Z,87.71
2019-03-10T06:22:30.633Z,87.99
2019-03-10T06:24:57.377Z,88.05
2019-03-10T06:27:27.885Z,88.67
2019-03-10T06:29:56.184Z,88.74
2019-03-10T06:32:22.931Z,88.92
2019-03-10T06:34:53.250Z,88.86
2019-03-10T06:37:20.563Z,89.03
2019-03-10T06:39:47.957Z,89.04
2019-03-10T06:42:17.051Z,89.20
2019-03-10T06:44:43.794Z,89.16
2019-03-10T06:47:10.511Z,89.63
2019-03-10T06:49:37.373Z,90.05
2019-03-10T06:52:04.108Z,90.22
2019-03-10T06:54:30.891Z,90.53
2019-03-10T06:56:57.607Z,90.38
2019-03-10T06:59:24.355Z,90.28
2019-03-10T07:01:52.951Z,89.98
2019-03-10T07:04:19.655Z,89.79
2019-03-10T07:06:46.373Z,89.91
2019-03-10T07:09:13.911Z,90.35
2019-03-10T07:11:42.190Z,90.03
2019-03-10T07:14:08.936Z,90.07
2019-03-10T07:16:35.652Z,89.78
2019-03-10T07:19:02.372Z,89.78
2019-03-10T07:21:29.097Z,89.92
2019-03-10T07:23:55.823Z,89.86
2019-03-10T07:26:22.554Z,90.10
2019-03-10T07:28:57.291Z,89.95
2019-03-10T07:31:31.616Z,89.96
2019-03-10T07:34:10.522Z,89.95
2019-03-10T07:36:49.762Z,90.43
2019-03-10T07:39:31.768Z,90.70
2019-03-10T07:42:06.606Z,90.83
2019-03-10T07:45:01.746Z,90.95
2019-03-10T07:47:35.635Z,91.15
2019-03-10T07:50:11.039Z,91.13
2019-03-10T07:52:57.371Z,91.17
2019-03-10T07:55:50.019Z,91.47
2019-03-10T07:58:34.549Z,91.54
2019-03-10T08:01:12.358Z,91.51
2019-03-10T08:03:57.755Z,91.56
2019-03-10T08:06:50.175Z,91.42
2019-03-10T08:09:33.211Z,91.45
2019-03-10T08:12:18.175Z,91.68
2019-03-10T08:14:56.674Z,91.85
2019-03-10T08:17:41.879Z,92.23
2019-03-10T08:20:28.566Z,92.22
2019-03-10T08:23:17.153Z,92.07
2019-03-10T08:26:09.761Z,92.16
2019-03-10T08:28:54.070Z,91.92
2019-03-10T08:31:37.638Z,91.76
2019-03-10T08:34:36.466Z,91.70
2019-03-10T08:37:22.779Z,91.31
2019-03-10T08:40:12.455Z,91.83
2019-03-10T08:42:57.806Z,92.03
2019-03-10T08:45:46.668Z,91.81
2019-03-10T08:48:31.819Z,91.60
2019-03-10T08:51:07.674Z,91.52
2019-03-10T08:53:42.926Z,91.41
2019-03-10T08:56:33.035Z,90.87
2019-03-10T08:59:22.066Z,90.26
2019-03-10T09:02:04.980Z,89.64
2019-03-10T09:05:00.405Z,89.50
2019-03-10T09:07:46.777Z,89.63
2019-03-10T09:10:31.580Z,89.47
2019-03-10T09:13:06.996Z,89.50
2019-03-10T09:15:46.832Z,89.51
2019-03-10T09:18:28.521Z,89.78
2019-03-10T09:21:08.712Z,89.21
2019-03-10T09:23:57.831Z,89.73
2019-03-10T09:26:39.762Z,89.72
2019-03-10T09:29:15.198Z,89.97
2019-03-10T09:32:01.252Z,90.39
2019-03-10T09:35:06.740Z,89.23
2019-03-10T09:37:51.708Z,87.62
2019-03-10T09:40:28.074Z,86.54
2019-03-10T09:43:29.466Z,87.65
2019-03-10T09:46:19.052Z,87.87
2019-03-10T09:49:05.814Z,88.00
2019-03-10T09:51:58.452Z,88.44
2019-03-10T09:54:44.791Z,88.42
2019-03-10T09:57:23.906Z,88.36
2019-03-10T10:00:12.273Z,88.55
2019-03-10T10:02:53.428Z,88.67
2019-03-10T10:05:30.276Z,88.86
2019-03-10T10:08:19.143Z,89.11
2019-03-10T10:10:59.512Z,89.10
2019-03-10T10:13:37.739Z,89.54
2019-03-10T10:16:32.894Z,87.67
2019-03-10T10:19:22.482Z,88.03
2019-03-10T10:22:20.676Z,85.35
2019-03-10T10:25:05.674Z,82.56
2019-03-10T10:27:41.807Z,81.09
2019-03-10T10:30:47.357Z,81.75
2019-03-10T10:33:34.380Z,82.56
2019-03-10T10:36:15.657Z,83.70
2019-03-10T10:39:05.020Z,83.55
2019-03-10T10:41:42.921Z,83.52
2019-03-10T10:44:16.539Z,84.20
2019-03-10T10:47:14.865Z,83.38
2019-03-10T10:49:59.961Z,83.23
2019-03-10T10:52:37.987Z,81.05
2019-03-10T10:55:11.807Z,80.83
2019-03-10T10:57:55.350Z,80.34
2019-03-10T11:00:38.156Z,79.12
2019-03-10T11:03:33.320Z,78.78
2019-03-10T11:06:15.677Z,79.33
2019-03-10T11:08:54.694Z,80.71
2019-03-10T11:11:43.939Z,82.71
2019-03-10T11:14:36.807Z,83.59
2019-03-10T11:17:21.870Z,84.07
2019-03-10T11:20:11.196Z,83.52
2019-03-10T11:23:06.202Z,82.74
2019-03-10T11:25:55.359Z,80.88
2019-03-10T11:28:34.031Z,79.34
2019-03-10T11:31:24.644Z,77.84
2019-03-10T11:34:02.908Z,77.90
2019-03-10T11:37:01.508Z,78.49
2019-03-10T11:39:42.196Z,79.27
2019-03-10T11:42:43.440Z,78.98
2019-03-10T11:45:20.841Z,78.41
2019-03-10T11:48:06.840Z,77.02
2019-03-10T11:50:53.289Z,75.80
2019-03-10T11:53:40.993Z,73.99
2019-03-10T11:56:25.226Z,72.66
2019-03-10T11:58:57.222Z,71.37
2019-03-10T12:01:47.560Z,71.44
2019-03-10T12:04:23.022Z,70.60
2019-03-10T12:07:09.337Z,70.52
2019-03-10T12:09:36.186Z,69.72
2019-03-10T12:12:04.510Z,69.01
2019-03-10T12:14:34.637Z,67.92
2019-03-10T12:17:01.376Z,67.09
2019-03-10T12:19:28.127Z,66.83
2019-03-10T12:21:57.106Z,65.59
2019-03-10T12:24:23.963Z,62.66
2019-03-10T12:26:50.700Z,61.75
2019-03-10T12:29:19.805Z,60.06
2019-03-10T12:31:49.454Z,59.29
2019-03-10T12:34:18.594Z,59.29
2019-03-10T12:36:48.491Z,58.57
2019-03-10T12:39:17.144Z,57.95
2019-03-10T12:41:44.141Z,57.41
2019-03-10T12:44:12.214Z,57.22
2019-03-10T12:46:40.961Z,55.63
2019-03-10T12:49:10.578Z,57.82
2019-03-10T12:51:37.318Z,57.97
2019-03-10T12:54:06.162Z,57.47
2019-03-10T12:56:42.169Z,57.06
2019-03-10T12:59:08.882Z,57.07
2019-03-10T13:01:37.497Z,58.20
2019-03-10T13:04:04.515Z,58.30
2019-03-10T13:06:31.343Z,56.70
2019-03-10T13:09:01.715Z,56.05
2019-03-10T13:11:28.438Z,55.51
2019-03-10T13:13:55.202Z,55.37
2019-03-10T13:16:24.773Z,52.23
2019-03-10T13:18:52.716Z,51.67
2019-03-10T13:21:19.634Z,49.88
2019-03-10T13:23:46.537Z,48.44
2019-03-10T13:26:13.312Z,46.64
2019-03-10T13:28:40.172Z,43.68
2019-03-10T13:31:06.931Z,43.16
2019-03-10T13:33:33.709Z,42.43
2019-03-10T13:36:00.706Z,41.69
2019-03-10T13:38:29.791Z,42.75
2019-03-10T13:40:56.813Z,42.55
2019-03-10T13:43:23.784Z,42.22
2019-03-10T13:45:52.835Z,42.71
2019-03-10T13:48:19.572Z,41.99
2019-03-10T13:50:46.594Z,41.07
2019-03-10T13:53:15.399Z,40.97
2019-03-10T13:55:42.135Z,40.76
2019-03-10T13:58:08.858Z,41.39
2019-03-10T14:00:36.164Z,41.26
2019-03-10T14:03:23.250Z,39.53
2019-03-10T14:05:50.013Z,38.47
2019-03-10T14:08:17.676Z,38.98
2019-03-10T14:10:47.171Z,39.12
2019-03-10T14:13:14.019Z,39.34
2019-03-10T14:15:40.886Z,39.66
2019-03-10T14:18:09.492Z,38.67
2019-03-10T14:20:36.329Z,38.30
2019-03-10T14:23:03.029Z,37.60
2019-03-10T14:25:29.893Z,37.88
2019-03-10T14:27:57.141Z,37.69
2019-03-10T14:30:23.859Z,37.94
2019-03-10T14:32:50.635Z,37.65
2019-03-10T14:35:19.061Z,38.00
2019-03-10T14:37:47.678Z,37.53
2019-03-10T14:40:14.769Z,38.94
2019-03-10T14:42:41.523Z,39.60
2019-03-10T14:45:09.703Z,38.53
2019-03-10T14:47:36.436Z,38.29
2019-03-10T14:50:03.702Z,37.61
2019-03-10T14:52:30.437Z,37.57
2019-03-10T14:55:03.224Z,37.60
2019-03-10T14:57:30.287Z,37.91
2019-03-10T15:00:10.354Z,38.00
2019-03-10T15:02:37.126Z,38.57
2019-03-10T15:05:04.438Z,39.21
2019-03-10T15:07:41.969Z,39.39
2019-03-10T15:10:11.831Z,40.09
2019-03-10T15:12:38.684Z,40.61
2019-03-10T15:15:06.199Z,41.45
2019-03-10T15:17:33.014Z,42.04
2019-03-10T15:19:59.907Z,42.25
2019-03-10T15:22:26.609Z,42.39
2019-03-10T15:24:53.350Z,42.62
2019-03-10T15:27:23.486Z,43.40
2019-03-10T15:29:49.650Z,43.46
2019-03-10T15:32:16.748Z,44.34
2019-03-10T15:34:43.450Z,45.47
2019-03-10T15:37:12.143Z,48.56
2019-03-10T15:39:39.017Z,48.71
2019-03-10T15:42:05.840Z,48.24
2019-03-10T15:44:32.598Z,48.42
2019-03-10T15:46:59.347Z,47.66
2019-03-10T15:49:27.758Z,47.69
2019-03-10T15:51:54.512Z,46.76
2019-03-10T15:54:23.813Z,43.98
2019-03-10T15:56:54.262Z,43.49
2019-03-10T15:59:21.236Z,43.50
2019-03-10T16:01:47.997Z,44.18
2019-03-10T16:04:22.219Z,44.70
2019-03-10T16:06:49.111Z,45.06
2019-03-10T16:09:18.980Z,43.78
2019-03-10T16:11:45.830Z,43.83
2019-03-10T16:14:12.681Z,43.89
2019-03-10T16:16:39.372Z,43.97
2019-03-10T16:19:06.174Z,44.08
2019-03-10T16:21:33.059Z,44.50
2019-03-10T16:24:14.817Z,45.02
2019-03-10T16:26:41.896Z,45.63
2019-03-10T16:29:09.125Z,46.32
2019-03-10T16:31:35.831Z,46.82
2019-03-10T16:34:02.839Z,46.80
2019-03-10T16:36:29.925Z,46.72
2019-03-10T16:38:58.372Z,46.94
2019-03-10T16:41:25.089Z,47.17
2019-03-10T16:43:51.842Z,47.15
2019-03-10T16:46:18.530Z,46.80
2019-03-10T16:48:45.242Z,46.70
2019-03-10T16:51:12.117Z,46.99
2019-03-10T16:53:38.911Z,46.82
2019-03-10T16:56:05.655Z,47.26
2019-03-10T16:58:32.531Z,48.10
2019-03-10T17:00:59.355Z,48.85
2019-03-10T17:03:26.092Z,49.88
2019-03-10T17:05:53.679Z,52.34
2019-03-10T17:08:20.413Z,56.88
2019-03-10T17:10:47.151Z,58.32
2019-03-10T17:13:13.921Z,60.86
2019-03-10T17:15:41.104Z,62.47
2019-03-10T17:18:08.077Z,64.80
2019-03-10T17:20:37.170Z,67.26
2019-03-10T17:23:03.916Z,64.50
2019-03-10T17:25:31.584Z,63.61
2019-03-10T17:27:58.328Z,60.85
2019-03-10T17:30:25.046Z,61.87
2019-03-10T17:32:51.790Z,59.19
2019-03-10T17:35:18.638Z,58.42
2019-03-10T17:37:45.346Z,58.06
2019-03-10T17:40:14.253Z,58.30
2019-03-10T17:42:41.229Z,58.59
2019-03-10T17:45:09.101Z,58.89
2019-03-10T17:47:35.823Z,58.14
2019-03-10T17:50:02.904Z,58.22
2019-03-10T17:52:33.063Z,58.04
2019-03-10T17:54:59.836Z,58.41
2019-03-10T17:57:27.925Z,58.19
2019-03-10T17:59:55.314Z,58.23
2019-03-10T18:02:22.373Z,57.77
2019-03-10T18:04:51.913Z,57.74
2019-03-10T18:07:18.649Z,57.38
2019-03-10T18:09:45.398Z,56.95
2019-03-10T18:12:12.141Z,56.80
2019-03-10T18:14:42.229Z,56.29
2019-03-10T18:17:09.480Z,56.23
2019-03-10T18:19:36.860Z,55.89
2019-03-10T18:22:05.536Z,55.74
2019-03-10T18:24:32.239Z,55.41
2019-03-10T18:26:58.960Z,55.30
2019-03-10T18:29:25.759Z,55.25
2019-03-10T18:31:54.391Z,54.58
2019-03-10T18:34:21.161Z,54.11
2019-03-10T18:36:47.931Z,53.93
2019-03-10T18:39:17.415Z,53.44
2019-03-10T18:41:44.172Z,53.52
2019-03-10T18:44:10.930Z,53.51
2019-03-10T18:46:37.852Z,53.38
2019-03-10T18:49:04.614Z,53.08
2019-03-10T18:51:33.133Z,53.33
2019-03-10T18:54:00.128Z,53.92
2019-03-10T18:56:26.969Z,54.13
2019-03-10T18:58:53.912Z,54.40
2019-03-10T19:01:22.080Z,55.27
2019-03-10T19:03:50.756Z,55.85
2019-03-10T19:06:17.524Z,56.29
2019-03-10T19:08:44.549Z,56.15
2019-03-10T19:11:11.389Z,56.39
2019-03-10T19:13:39.426Z,56.44
2019-03-10T19:16:06.212Z,56.48
2019-03-10T19:18:35.762Z,55.81
2019-03-10T19:21:02.693Z,55.91
2019-03-10T19:23:30.540Z,55.37
2019-03-10T19:26:01.433Z,55.05
2019-03-10T19:28:30.520Z,55.27
2019-03-10T19:30:57.406Z,54.75
2019-03-10T19:33:24.280Z,54.55
2019-03-10T19:35:51.283Z,54.59
2019-03-10T19:38:18.243Z,54.18
2019-03-10T19:40:45.121Z,53.91
2019-03-10T19:43:11.870Z,54.08
2019-03-10T19:45:38.829Z,53.83
2019-03-10T19:48:05.576Z,53.88
2019-03-10T19:50:34.483Z,53.83
2019-03-10T19:53:01.310Z,53.25
2019-03-10T19:55:30.405Z,52.95
2019-03-10T19:57:57.303Z,53.01
2019-03-10T20:00:24.290Z,53.14
2019-03-10T20:02:51.186Z,52.86
2019-03-10T20:05:17.986Z,53.09
2019-03-10T20:07:45.445Z,53.34
2019-03-10T20:10:12.486Z,52.94
2019-03-10T20:12:39.243Z,53.13
2019-03-10T20:15:08.598Z,53.01
2019-03-10T20:17:35.523Z,52.65
2019-03-10T20:20:02.526Z,52.34
2019-03-10T20:22:29.231Z,52.59
2019-03-10T20:24:56.218Z,52.63
2019-03-10T20:27:23.077Z,53.02
2019-03-10T20:29:50.077Z,52.96
2019-03-10T20:32:16.826Z,53.16
2019-03-10T20:34:43.947Z,53.03
2019-03-10T20:37:10.995Z,52.92
2019-03-10T20:39:37.683Z,53.29
2019-03-10T20:42:05.427Z,53.33
2019-03-10T20:44:32.717Z,53.38
2019-03-10T20:47:02.293Z,53.84
2019-03-10T20:49:31.621Z,53.77
2019-03-10T20:51:58.472Z,53.90
2019-03-10T20:54:26.966Z,54.20
2019-03-10T20:56:55.754Z,54.20
2019-03-10T20:59:22.528Z,54.40
2019-03-10T21:01:50.014Z,54.31
2019-03-10T21:04:17.668Z,54.38
2019-03-10T21:06:45.368Z,54.61
2019-03-10T21:09:12.211Z,54.40
2019-03-10T21:11:40.819Z,54.24
2019-03-10T21:14:08.622Z,54.34
2019-03-10T21:16:35.409Z,54.78
2019-03-10T21:19:03.575Z,54.61
2019-03-10T21:21:30.329Z,54.57
2019-03-10T21:23:57.627Z,54.72
2019-03-10T21:26:24.409Z,54.61
2019-03-10T21:28:51.534Z,54.45
2019-03-10T21:31:19.657Z,54.17
2019-03-10T21:33:46.410Z,54.51
2019-03-10T21:36:13.173Z,54.63
2019-03-10T21:38:41.774Z,54.59
2019-03-10T21:41:14.095Z,54.16
2019-03-10T21:43:37.567Z,54.13
2019-03-10T21:46:07.740Z,54.28
2019-03-10T21:48:34.622Z,54.43
2019-03-10T21:51:04.376Z,54.66
2019-03-10T21:53:38.518Z,54.65
2019-03-10T21:56:07.725Z,54.84
2019-03-10T21:58:34.894Z,54.59
2019-03-10T22:01:01.818Z,54.80
2019-03-10T22:03:29.669Z,54.64
2019-03-10T22:05:56.696Z,54.48
2019-03-10T22:08:23.643Z,54.43
2019-03-10T22:10:52.411Z,54.28
2019-03-10T22:13:19.138Z,54.47
2019-03-10T22:15:45.873Z,54.09
2019-03-10T22:18:12.589Z,54.44
2019-03-10T22:20:39.700Z,54.09
2019-03-10T22:23:06.419Z,53.89
2019-03-10T22:25:33.153Z,54.08
2019-03-10T22:27:59.950Z,53.95
2019-03-10T22:30:26.681Z,54.24
2019-03-10T22:32:53.384Z,54.20
2019-03-10T22:35:20.138Z,54.49
2019-03-10T22:37:46.842Z,53.91
2019-03-10T22:40:13.659Z,53.96
2019-03-10T22:42:40.670Z,54.14
2019-03-10T22:45:08.263Z,54.17
2019-03-10T22:47:36.344Z,54.16
2019-03-10T22:50:03.345Z,53.94
2019-03-10T22:52:30.064Z,53.74
2019-03-10T22:54:56.845Z,53.86
2019-03-10T22:57:23.680Z,53.72
2019-03-10T22:59:50.527Z,54.14
2019-03-10T23:02:20.326Z,53.76
2019-03-10T23:04:47.053Z,53.97
2019-03-10T23:07:14.123Z,53.64
2019-03-10T23:09:43.064Z,53.76
2019-03-10T23:12:12.722Z,53.80
2019-03-10T23:14:39.430Z,53.65
2019-03-10T23:17:06.270Z,53.31
2019-03-10T23:19:33.141Z,53.58
2019-03-10T23:21:59.868Z,53.82
2019-03-10T23:24:26.569Z,54.00
2019-03-10T23:26:54.844Z,54.21
2019-03-10T23:29:21.671Z,54.56
2019-03-10T23:31:48.482Z,54.83
2019-03-10T23:34:15.195Z,54.70
2019-03-10T23:36:41.917Z,54.90
2019-03-10T23:39:08.624Z,55.19
2019-03-10T23:41:35.353Z,55.13
2019-03-10T23:44:02.060Z,55.32
2019-03-10T23:46:28.774Z,55.11
2019-03-10T23:48:55.498Z,55.12
2019-03-10T23:51:22.627Z,55.11
2019-03-10T23:53:49.425Z,55.03
2019-03-10T23:56:16.172Z,55.14
2019-03-10T23:58:43.379Z,55.45
